40.5°F
Current conditions from King Hill
Updated every 5 minutes
 
  Tuesday February 21, 2017

Observations for Westford

Westford

44° 37' 39"N, 73° 02' 29"W, Elevation 850 ft.
Eastern Time

Hourly observations for the last 72 hours

Date Time Temperature (°F) Humi-
dity

(%)
Wind
(mph)
Pressure Rain (in)
Air Dew 6 Hour 1 Hr 3 Hr 6 Hr Day
Alt
(in)
Sea
Level

(mb)
Max Min
21 14:00 39.8 18.0 41 SSW 4 G 19 30.07 1018.4 0.00
21 13:00 38.2 16.6 38.4 11.7 41 SSW 8 G 18 30.13 1020.2 0.00
21 12:00 37.4 15.3 40 SSW 9 G 19 30.18 1021.9 0.00
21 11:00 34.6 15.4 45 S 10 G 23 30.20 1022.7 0.00
21 10:00 30.0 17.4 59 SSW 4 G 8 30.24 1024.1 0.00
21 09:00 26.9 16.7 65 SSW 3 G 8 30.27 1025.1 0.00
21 08:00 15.5 13.1 90 Calm 30.28 1025.5 0.00
21 07:00 11.7 9.3 19.0 11.6 90 Calm 30.31 1026.3 0.00
21 06:00 13.5 11.1 90 Calm 30.31 1026.4 0.00
21 05:00 14.1 11.5 89 Calm 30.33 1027.2 0.00
21 04:00 14.3 11.4 88 Calm 30.33 1027.1 0.00
21 03:00 18.8 14.5 83 Calm 30.35 1027.8 0.00
21 02:00 17.1 12.8 83 Calm 30.36 1028.2 0.00
21 01:00 16.5 12.8 23.8 15.9 85 Calm 30.36 1028.1 0.00
21 00:00 16.2 13.0 87 Calm 30.37 1028.4 0.00
20 23:00 16.7 13.5 87 Calm 30.39 1029.3 0.00
20 22:00 18.9 14.0 81 Calm 30.39 1029.2 0.00
20 21:00 22.7 16.0 75 Calm 30.38 1029.0 0.00
20 20:00 22.3 15.9 76 Calm 30.37 1028.5 0.00
20 19:00 23.7 15.7 32.0 22.6 71 Calm 30.36 1028.1 0.00
20 18:00 24.8 15.1 66 Calm 30.35 1027.8 0.00
20 17:00 29.0 17.6 62 NE 0 G 10 30.31 1026.5 0.00
20 16:00 31.0 18.7 60 NNE 0 G 10 30.30 1026.1 0.00
20 15:00 31.9 18.4 57 N 1 G 11 30.31 1026.3 0.00
20 14:00 30.8 18.6 60 NNW 1 G 10 30.30 1026.1 0.00
20 13:00 30.7 18.8 30.8 25.1 61 NW 0 G 3 30.27 1025.1 0.00
20 12:00 29.5 19.5 66 NW 0 G 8 30.26 1024.9 0.00
20 11:00 28.4 19.5 69 NNW 0 G 5 30.25 1024.5 0.00
20 10:00 27.8 19.3 70 N 1 G 12 30.24 1024.0 0.00
20 09:00 25.2 18.1 74 NNE 0 G 16 30.21 1023.1 0.00
20 08:00 26.0 19.5 76 NW 1 G 13 30.17 1021.8 0.00
20 07:00 26.9 20.4 32.2 26.9 76 NNW 1 G 11 30.13 1020.5 0.00
20 06:00 27.9 21.6 77 NW 3 G 12 30.11 1019.6 0.00
20 05:00 29.0 23.3 79 WNW 0 G 11 30.08 1018.7 0.00
20 04:00 29.7 24.3 80 Calm 30.06 1017.8 0.00
20 03:00 30.2 24.5 79 Calm 30.03 1017.0 0.00
20 02:00 31.2 25.5 79 N 1 G 10 30.02 1016.6 0.00
20 01:00 32.2 26.4 40.7 32.2 79 NNW 0 G 11 30.00 1015.8 0.00
20 00:00 33.4 27.3 78 NNW 0 G 9 29.98 1015.3 0.00
19 23:00 34.3 28.5 79 NW 0 G 14 29.96 1014.5 0.00
19 22:00 35.7 30.4 81 NW 0 G 6 29.93 1013.6 0.00
19 21:00 36.7 31.7 82 NNW 0 G 4 29.91 1012.8 0.00
19 20:00 37.6 33.2 84 NNW 1 G 7 29.88 1011.9 0.00
19 19:00 40.7 32.0 47.7 40.6 71 W 0 G 6 29.85 1010.7 0.00
19 18:00 41.5 32.1 69 NNW 0 G 5 29.82 1009.8 0.00
19 17:00 42.2 32.0 67 NW 2 G 10 29.79 1008.9 0.00
19 16:00 42.3 32.9 69 NW 2 G 16 29.76 1007.9 0.00
19 15:00 45.1 33.7 64 NW 0 G 7 29.72 1006.5 0.00
19 14:00 47.2 33.6 59 NNW 2 G 14 29.69 1005.4 0.00
19 13:00 44.3 33.7 46.0 40.4 66 WNW 4 G 13 29.68 1005.1 0.00
19 12:00 43.8 34.7 70 WNW 6 G 9 29.66 1004.3 0.00
19 11:00 44.7 35.5 70 WSW 8 G 14 29.64 1003.8 0.00
19 10:00 42.9 36.2 77 SW 4 G 12 29.63 1003.4 0.00
19 09:00 41.4 35.7 80 SW 3 G 12 29.61 1002.9 0.00
19 08:00 40.5 35.1 81 WSW 5 G 10 29.63 1003.4 0.00
19 07:00 41.5 35.5 44.5 39.4 79 W 4 G 9 29.60 1002.3 0.00
19 06:00 41.6 35.3 78 WSW 2 G 9 29.59 1001.9 0.00
19 05:00 41.3 35.3 79 SW 1 G 7 29.59 1002.0 0.00
19 04:00 40.7 35.0 80 SSW 3 G 7 29.57 1001.3 0.00
19 03:00 43.0 36.0 76 SW 2 G 7 29.56 1001.0 0.00
19 02:00 43.7 36.0 74 SW 2 G 10 29.54 1000.3 0.00
19 01:00 44.0 36.3 45.4 42.4 74 WSW 4 G 11 29.53 1000.0 0.00
19 00:00 44.9 36.4 72 SSW 5 G 12 29.51 999.3 0.00
18 23:00 44.4 35.6 71 WSW 4 G 16 29.49 998.8 0.00
18 22:00 44.0 34.1 68 SW 4 G 11 29.48 998.5 0.00
18 21:00 43.4 32.8 66 SW 3 G 10 29.47 997.9 0.00
18 20:00 44.1 32.3 63 SW 3 G 12 29.45 997.3 0.00
18 19:00 44.3 32.1 47.4 41.9 62 SSW 8 G 15 29.44 996.9 0.00
18 18:00 44.7 31.7 60 SSW 6 G 16 29.41 996.1 0.00
18 17:00 46.3 31.5 56 SSW 6 G 20 29.40 995.7 0.00
18 16:00 47.2 31.4 54 SW 10 G 19 29.39 995.4 0.00
18 15:00 46.5 30.3 53 SSW 9 G 24 29.40 995.6 0.00

Data generated by WxSolution Version 1.9.0.6, Build 2017.01.14.


 
 
Current Radar Loop:

Copyright © WestfordWeather.net 2007-2017. All rights reserved.